sensor_id;sensor_type;location;lat;lon;timestamp;pressure;altitude;pressure_sealevel;temperature;humidity
10510;BME280;5303;53.266;10.410;2023-06-04T00:02:01;101987.56;;;10.26;61.79
10510;BME280;5303;53.266;10.410;2023-06-04T00:04:26;101987.53;;;10.23;61.46
10510;BME280;5303;53.266;10.410;2023-06-04T00:06:51;101981.28;;;10.21;61.68
10510;BME280;5303;53.266;10.410;2023-06-04T00:09:17;101982.13;;;10.20;61.40
10510;BME280;5303;53.266;10.410;2023-06-04T00:11:42;101983.84;;;10.17;61.62
10510;BME280;5303;53.266;10.410;2023-06-04T00:14:07;101971.56;;;10.17;61.65
10510;BME280;5303;53.266;10.410;2023-06-04T00:16:33;101976.88;;;10.20;62.29
10510;BME280;5303;53.266;10.410;2023-06-04T00:19:00;101974.34;;;10.25;61.94
10510;BME280;5303;53.266;10.410;2023-06-04T00:21:25;101978.63;;;10.21;60.72
10510;BME280;5303;53.266;10.410;2023-06-04T00:23:51;101984.88;;;10.23;60.16
10510;BME280;5303;53.266;10.410;2023-06-04T00:26:16;101972.47;;;10.21;61.19
10510;BME280;5303;53.266;10.410;2023-06-04T00:28:41;101982.91;;;10.13;60.68
10510;BME280;5303;53.266;10.410;2023-06-04T00:31:07;101979.16;;;10.00;60.80
10510;BME280;5303;53.266;10.410;2023-06-04T00:33:32;101980.03;;;10.01;61.34
10510;BME280;5303;53.266;10.410;2023-06-04T00:35:58;101976.44;;;9.96;61.48
10510;BME280;5303;53.266;10.410;2023-06-04T00:38:24;101969.38;;;9.93;61.64
10510;BME280;5303;53.266;10.410;2023-06-04T00:40:49;101975.44;;;9.89;61.07
10510;BME280;5303;53.266;10.410;2023-06-04T00:43:14;101976.31;;;9.90;61.71
10510;BME280;5303;53.266;10.410;2023-06-04T00:45:40;101971.91;;;9.89;61.56
10510;BME280;5303;53.266;10.410;2023-06-04T00:48:06;101977.16;;;9.87;61.35
10510;BME280;5303;53.266;10.410;2023-06-04T00:50:31;101968.31;;;9.82;61.56
10510;BME280;5303;53.266;10.410;2023-06-04T00:52:58;101979.59;;;9.76;61.74
10510;BME280;5303;53.266;10.410;2023-06-04T00:55:24;101976.06;;;9.74;61.77
10510;BME280;5303;53.266;10.410;2023-06-04T00:57:49;101973.31;;;9.70;61.47
10510;BME280;5303;53.266;10.410;2023-06-04T01:00:15;101982.91;;;9.66;61.96
10510;BME280;5303;53.266;10.410;2023-06-04T01:02:41;101981.09;;;9.62;62.44
10510;BME280;5303;53.266;10.410;2023-06-04T01:05:16;101976.56;;;9.57;62.57
10510;BME280;5303;53.266;10.410;2023-06-04T01:07:45;101979.13;;;9.52;63.01
10510;BME280;5303;53.266;10.410;2023-06-04T01:10:15;101985.28;;;9.52;63.69
10510;BME280;5303;53.266;10.410;2023-06-04T01:12:42;101976.41;;;9.49;63.22
10510;BME280;5303;53.266;10.410;2023-06-04T01:15:08;101979.88;;;9.46;63.39
10510;BME280;5303;53.266;10.410;2023-06-04T01:23:06;101987.56;;;9.36;64.24
10510;BME280;5303;53.266;10.410;2023-06-04T01:25:41;101978.69;;;9.31;64.86
10510;BME280;5303;53.266;10.410;2023-06-04T01:28:10;101987.38;;;9.27;65.17
10510;BME280;5303;53.266;10.410;2023-06-04T01:30:43;101983.78;;;9.21;64.53
10510;BME280;5303;53.266;10.410;2023-06-04T01:33:12;101980.13;;;9.16;64.75
10510;BME280;5303;53.266;10.410;2023-06-04T01:35:37;101981.84;;;9.14;65.92
10510;BME280;5303;53.266;10.410;2023-06-04T01:38:03;101977.34;;;9.09;65.57
10510;BME280;5303;53.266;10.410;2023-06-04T01:40:29;101983.44;;;9.06;65.71
10510;BME280;5303;53.266;10.410;2023-06-04T01:42:54;101982.50;;;9.04;66.63
10510;BME280;5303;53.266;10.410;2023-06-04T01:45:21;101976.34;;;9.02;66.50
10510;BME280;5303;53.266;10.410;2023-06-04T01:47:47;101980.69;;;9.00;66.13
10510;BME280;5303;53.266;10.410;2023-06-04T01:50:12;101979.69;;;8.95;66.56
10510;BME280;5303;53.266;10.410;2023-06-04T01:52:39;101980.44;;;8.89;66.29
10510;BME280;5303;53.266;10.410;2023-06-04T01:55:06;101977.63;;;8.82;66.10
10510;BME280;5303;53.266;10.410;2023-06-04T01:57:33;101977.50;;;8.77;66.71
10510;BME280;5303;53.266;10.410;2023-06-04T01:59:58;101973.06;;;8.75;66.36
10510;BME280;5303;53.266;10.410;2023-06-04T02:02:23;101982.69;;;8.73;67.25
10510;BME280;5303;53.266;10.410;2023-06-04T02:04:49;101980.91;;;8.72;67.15
10510;BME280;5303;53.266;10.410;2023-06-04T02:07:18;101974.56;;;8.63;67.00
10510;BME280;5303;53.266;10.410;2023-06-04T02:09:46;101968.31;;;8.58;66.93
10510;BME280;5303;53.266;10.410;2023-06-04T02:12:11;101969.22;;;8.59;67.65
10510;BME280;5303;53.266;10.410;2023-06-04T02:14:36;101972.56;;;8.53;67.57
10510;BME280;5303;53.266;10.410;2023-06-04T02:17:03;101973.50;;;8.55;68.02
10510;BME280;5303;53.266;10.410;2023-06-04T02:19:29;101974.34;;;8.54;67.93
10510;BME280;5303;53.266;10.410;2023-06-04T02:21:55;101981.41;;;8.57;68.18
10510;BME280;5303;53.266;10.410;2023-06-04T02:24:21;101980.50;;;8.55;67.81
10510;BME280;5303;53.266;10.410;2023-06-04T02:26:47;101975.19;;;8.53;68.37
10510;BME280;5303;53.266;10.410;2023-06-04T02:29:12;101979.63;;;8.56;68.16
10510;BME280;5303;53.266;10.410;2023-06-04T02:31:37;101974.31;;;8.53;68.74
10510;BME280;5303;53.266;10.410;2023-06-04T02:34:03;101980.53;;;8.56;67.82
10510;BME280;5303;53.266;10.410;2023-06-04T02:36:29;101973.44;;;8.52;67.66
10510;BME280;5303;53.266;10.410;2023-06-04T02:38:54;101975.25;;;8.56;68.56
10510;BME280;5303;53.266;10.410;2023-06-04T02:41:21;101978.66;;;8.51;66.98
10510;BME280;5303;53.266;10.410;2023-06-04T02:43:46;101980.31;;;8.47;68.62
10510;BME280;5303;53.266;10.410;2023-06-04T02:46:11;101979.31;;;8.42;68.38
10510;BME280;5303;53.266;10.410;2023-06-04T02:48:36;101984.44;;;8.37;68.07
10510;BME280;5303;53.266;10.410;2023-06-04T02:51:02;101986.94;;;8.33;68.69
10510;BME280;5303;53.266;10.410;2023-06-04T02:53:27;101995.63;;;8.29;68.20
10510;BME280;5303;53.266;10.410;2023-06-04T02:55:52;101985.81;;;8.23;68.35
10510;BME280;5303;53.266;10.410;2023-06-04T02:58:18;101981.44;;;8.24;68.39
10510;BME280;5303;53.266;10.410;2023-06-04T03:00:44;101981.59;;;8.28;68.75
10510;BME280;5303;53.266;10.410;2023-06-04T03:03:10;101984.94;;;8.23;68.91
10510;BME280;5303;53.266;10.410;2023-06-04T03:05:35;101978.69;;;8.18;69.44
10510;BME280;5303;53.266;10.410;2023-06-04T03:08:02;101980.31;;;8.14;69.58
10510;BME280;5303;53.266;10.410;2023-06-04T03:10:28;101991.72;;;8.15;68.98
10510;BME280;5303;53.266;10.410;2023-06-04T03:12:54;101991.72;;;8.15;69.32
10510;BME280;5303;53.266;10.410;2023-06-04T03:15:20;101986.63;;;8.21;69.16
10510;BME280;5303;53.266;10.410;2023-06-04T03:17:45;101992.84;;;8.24;69.03
10510;BME280;5303;53.266;10.410;2023-06-04T03:20:11;101992.03;;;8.27;69.21
10510;BME280;5303;53.266;10.410;2023-06-04T03:22:36;101989.50;;;8.30;69.59
10510;BME280;5303;53.266;10.410;2023-06-04T03:25:02;101985.16;;;8.32;69.78
10510;BME280;5303;53.266;10.410;2023-06-04T03:27:28;101987.81;;;8.33;69.53
10510;BME280;5303;53.266;10.410;2023-06-04T03:29:53;101988.00;;;8.38;69.45
10510;BME280;5303;53.266;10.410;2023-06-04T03:32:18;101987.13;;;8.39;68.90
10510;BME280;5303;53.266;10.410;2023-06-04T03:34:44;101993.25;;;8.38;69.21
10510;BME280;5303;53.266;10.410;2023-06-04T03:37:09;101986.19;;;8.37;68.75
10510;BME280;5303;53.266;10.410;2023-06-04T03:39:35;101982.75;;;8.38;69.39
10510;BME280;5303;53.266;10.410;2023-06-04T03:42:00;101985.47;;;8.43;69.37
10510;BME280;5303;53.266;10.410;2023-06-04T03:44:25;101989.88;;;8.44;69.23
10510;BME280;5303;53.266;10.410;2023-06-04T03:46:51;101993.41;;;8.46;69.71
10510;BME280;5303;53.266;10.410;2023-06-04T03:49:16;101986.50;;;8.49;69.60
10510;BME280;5303;53.266;10.410;2023-06-04T03:51:42;101991.03;;;8.56;69.94
10510;BME280;5303;53.266;10.410;2023-06-04T03:54:08;101985.06;;;8.62;69.32
10510;BME280;5303;53.266;10.410;2023-06-04T03:56:33;101986.22;;;8.75;69.02
10510;BME280;5303;53.266;10.410;2023-06-04T03:58:59;101973.31;;;8.85;69.44
10510;BME280;5303;53.266;10.410;2023-06-04T04:01:24;101976.34;;;9.02;69.85
10510;BME280;5303;53.266;10.410;2023-06-04T04:03:51;101978.56;;;9.24;69.19
10510;BME280;5303;53.266;10.410;2023-06-04T04:06:17;101979.91;;;9.48;69.40
10510;BME280;5303;53.266;10.410;2023-06-04T04:08:43;101977.78;;;9.72;68.13
10510;BME280;5303;53.266;10.410;2023-06-04T04:11:13;101978.19;;;9.94;68.13
10510;BME280;5303;53.266;10.410;2023-06-04T04:13:38;101977.88;;;10.25;68.41
10510;BME280;5303;53.266;10.410;2023-06-04T04:16:04;101966.13;;;10.61;67.74
10510;BME280;5303;53.266;10.410;2023-06-04T04:18:35;101974.44;;;10.85;67.29
10510;BME280;5303;53.266;10.410;2023-06-04T04:21:02;101966.97;;;11.20;65.90
10510;BME280;5303;53.266;10.410;2023-06-04T04:23:28;101975.47;;;11.65;63.78
10510;BME280;5303;53.266;10.410;2023-06-04T04:25:54;101972.34;;;12.04;63.00
10510;BME280;5303;53.266;10.410;2023-06-04T04:28:21;101972.69;;;12.42;61.61
10510;BME280;5303;53.266;10.410;2023-06-04T04:30:47;101963.38;;;12.97;59.41
10510;BME280;5303;53.266;10.410;2023-06-04T04:33:14;101960.13;;;13.69;58.11
10510;BME280;5303;53.266;10.410;2023-06-04T04:35:41;101958.47;;;14.53;55.33
10510;BME280;5303;53.266;10.410;2023-06-04T04:38:07;101961.69;;;15.65;52.17
10510;BME280;5303;53.266;10.410;2023-06-04T04:40:33;101964.09;;;16.05;49.38
10510;BME280;5303;53.266;10.410;2023-06-04T04:42:58;101961.41;;;16.03;47.97
10510;BME280;5303;53.266;10.410;2023-06-04T04:45:24;101965.25;;;15.49;48.87
10510;BME280;5303;53.266;10.410;2023-06-04T04:47:49;101960.19;;;14.69;50.35
10510;BME280;5303;53.266;10.410;2023-06-04T04:50:16;101969.06;;;14.32;51.06
10510;BME280;5303;53.266;10.410;2023-06-04T04:52:41;101963.75;;;14.03;53.12
10510;BME280;5303;53.266;10.410;2023-06-04T04:55:07;101968.19;;;14.34;54.02
10510;BME280;5303;53.266;10.410;2023-06-04T04:57:32;101959.25;;;14.96;52.02
10510;BME280;5303;53.266;10.410;2023-06-04T04:59:58;101962.38;;;15.95;49.89
10510;BME280;5303;53.266;10.410;2023-06-04T05:02:23;101951.81;;;16.85;47.30
10510;BME280;5303;53.266;10.410;2023-06-04T05:04:48;101947.78;;;17.94;42.87
10510;BME280;5303;53.266;10.410;2023-06-04T05:07:13;101948.41;;;18.62;41.79
10510;BME280;5303;53.266;10.410;2023-06-04T05:09:40;101948.84;;;19.32;40.45
10510;BME280;5303;53.266;10.410;2023-06-04T05:12:05;101955.59;;;20.27;36.56
10510;BME280;5303;53.266;10.410;2023-06-04T05:14:31;101955.06;;;20.82;35.33
10510;BME280;5303;53.266;10.410;2023-06-04T05:16:57;101951.63;;;21.70;34.33
10510;BME280;5303;53.266;10.410;2023-06-04T05:19:22;101957.50;;;22.90;31.49
10510;BME280;5303;53.266;10.410;2023-06-04T05:21:48;101961.28;;;22.32;32.63
10510;BME280;5303;53.266;10.410;2023-06-04T05:24:14;101954.88;;;22.87;29.01
10510;BME280;5303;53.266;10.410;2023-06-04T05:26:40;101966.66;;;22.58;29.21
10510;BME280;5303;53.266;10.410;2023-06-04T05:29:05;101967.81;;;21.95;31.24
10510;BME280;5303;53.266;10.410;2023-06-04T05:31:30;101973.78;;;20.84;34.80
10510;BME280;5303;53.266;10.410;2023-06-04T05:33:59;101963.97;;;20.50;33.66
10510;BME280;5303;53.266;10.410;2023-06-04T05:36:29;101972.75;;;19.81;36.44
10510;BME280;5303;53.266;10.410;2023-06-04T05:38:55;101979.47;;;19.17;35.74
10510;BME280;5303;53.266;10.410;2023-06-04T05:41:23;101970.69;;;18.10;37.28
10510;BME280;5303;53.266;10.410;2023-06-04T05:43:49;101976.16;;;17.33;38.58
10510;BME280;5303;53.266;10.410;2023-06-04T05:46:15;101977.59;;;16.86;40.73
10510;BME280;5303;53.266;10.410;2023-06-04T05:48:40;101984.41;;;16.12;42.50
10510;BME280;5303;53.266;10.410;2023-06-04T05:51:06;101987.25;;;15.88;43.58
10510;BME280;5303;53.266;10.410;2023-06-04T05:53:32;101979.41;;;15.52;45.29
10510;BME280;5303;53.266;10.410;2023-06-04T05:55:58;101984.13;;;14.65;48.09
10510;BME280;5303;53.266;10.410;2023-06-04T05:58:23;101984.13;;;14.53;49.10
10510;BME280;5303;53.266;10.410;2023-06-04T06:00:48;101983.25;;;14.54;48.36
10510;BME280;5303;53.266;10.410;2023-06-04T06:03:15;101978.78;;;14.37;48.81
10510;BME280;5303;53.266;10.410;2023-06-04T06:05:41;101986.78;;;14.48;48.51
10510;BME280;5303;53.266;10.410;2023-06-04T06:08:06;101980.56;;;14.11;50.12
10510;BME280;5303;53.266;10.410;2023-06-04T06:10:32;101992.91;;;14.09;50.88
10510;BME280;5303;53.266;10.410;2023-06-04T06:12:57;101985.84;;;14.05;50.46
10510;BME280;5303;53.266;10.410;2023-06-04T06:15:22;101989.38;;;13.93;50.32
10510;BME280;5303;53.266;10.410;2023-06-04T06:17:48;101987.63;;;14.12;50.10
10510;BME280;5303;53.266;10.410;2023-06-04T06:20:14;101984.94;;;13.97;50.86
10510;BME280;5303;53.266;10.410;2023-06-04T06:22:42;101993.78;;;13.97;50.69
10510;BME280;5303;53.266;10.410;2023-06-04T06:25:08;101981.44;;;14.13;50.17
10510;BME280;5303;53.266;10.410;2023-06-04T06:27:33;101984.09;;;14.22;50.73
10510;BME280;5303;53.266;10.410;2023-06-04T06:29:58;101992.94;;;14.27;49.83
10510;BME280;5303;53.266;10.410;2023-06-04T06:32:24;101983.22;;;14.31;49.71
10510;BME280;5303;53.266;10.410;2023-06-04T06:34:49;101985.84;;;14.29;49.50
10510;BME280;5303;53.266;10.410;2023-06-04T06:37:14;101989.44;;;14.53;47.00
10510;BME280;5303;53.266;10.410;2023-06-04T06:39:40;101992.97;;;14.47;47.84
10510;BME280;5303;53.266;10.410;2023-06-04T06:42:05;101991.19;;;14.32;47.48
10510;BME280;5303;53.266;10.410;2023-06-04T06:44:31;101993.88;;;14.46;46.71
10510;BME280;5303;53.266;10.410;2023-06-04T06:46:56;101993.88;;;14.54;47.08
10510;BME280;5303;53.266;10.410;2023-06-04T06:49:21;101986.78;;;14.73;46.07
10510;BME280;5303;53.266;10.410;2023-06-04T06:51:46;101992.97;;;14.67;46.95
10510;BME280;5303;53.266;10.410;2023-06-04T06:54:14;101995.63;;;14.84;46.80
10510;BME280;5303;53.266;10.410;2023-06-04T06:56:40;101992.91;;;14.97;45.53
10510;BME280;5303;53.266;10.410;2023-06-04T06:59:05;101990.25;;;14.99;45.62
10510;BME280;5303;53.266;10.410;2023-06-04T07:01:30;101998.25;;;14.94;46.30
10510;BME280;5303;53.266;10.410;2023-06-04T07:03:57;101997.31;;;15.09;45.21
10510;BME280;5303;53.266;10.410;2023-06-04T07:06:22;102000.78;;;15.36;45.18
10510;BME280;5303;53.266;10.410;2023-06-04T07:08:48;101994.56;;;15.38;45.16
10510;BME280;5303;53.266;10.410;2023-06-04T07:11:13;102005.19;;;15.44;45.76
10510;BME280;5303;53.266;10.410;2023-06-04T07:13:39;101998.06;;;15.49;46.33
10510;BME280;5303;53.266;10.410;2023-06-04T07:16:05;101999.84;;;15.41;46.34
10510;BME280;5303;53.266;10.410;2023-06-04T07:18:30;101997.19;;;15.41;46.26
10510;BME280;5303;53.266;10.410;2023-06-04T07:20:56;102003.41;;;15.40;47.20
10510;BME280;5303;53.266;10.410;2023-06-04T07:23:21;102000.75;;;15.45;46.81
10510;BME280;5303;53.266;10.410;2023-06-04T07:25:46;101990.94;;;15.51;46.57
10510;BME280;5303;53.266;10.410;2023-06-04T07:28:12;101994.53;;;15.47;46.74
10510;BME280;5303;53.266;10.410;2023-06-04T07:30:37;101998.84;;;15.73;44.50
10510;BME280;5303;53.266;10.410;2023-06-04T07:33:04;101999.69;;;15.81;44.63
10510;BME280;5303;53.266;10.410;2023-06-04T07:35:29;102007.69;;;15.81;45.21
10510;BME280;5303;53.266;10.410;2023-06-04T07:37:54;102006.78;;;15.85;44.24
10510;BME280;5303;53.266;10.410;2023-06-04T07:40:20;102012.09;;;15.87;44.17
10510;BME280;5303;53.266;10.410;2023-06-04T07:42:46;102009.38;;;15.93;43.17
10510;BME280;5303;53.266;10.410;2023-06-04T07:45:14;102003.06;;;16.10;43.46
10510;BME280;5303;53.266;10.410;2023-06-04T07:47:40;102015.53;;;16.02;42.53
10510;BME280;5303;53.266;10.410;2023-06-04T07:50:06;102015.47;;;16.15;41.68
10510;BME280;5303;53.266;10.410;2023-06-04T07:52:32;102010.19;;;16.07;42.34
10510;BME280;5303;53.266;10.410;2023-06-04T07:54:58;102010.97;;;16.23;42.28
10510;BME280;5303;53.266;10.410;2023-06-04T07:57:24;102010.06;;;16.24;41.47
10510;BME280;5303;53.266;10.410;2023-06-04T07:59:50;102016.28;;;16.23;39.91
10510;BME280;5303;53.266;10.410;2023-06-04T08:02:15;102011.78;;;16.31;40.69
10510;BME280;5303;53.266;10.410;2023-06-04T08:04:41;102005.47;;;16.44;41.50
10510;BME280;5303;53.266;10.410;2023-06-04T08:07:06;102010.81;;;16.41;41.43
10510;BME280;5303;53.266;10.410;2023-06-04T08:09:31;102005.50;;;16.41;41.50
10510;BME280;5303;53.266;10.410;2023-06-04T08:11:56;102003.63;;;16.52;40.14
10510;BME280;5303;53.266;10.410;2023-06-04T08:14:22;102013.31;;;16.68;40.91
10510;BME280;5303;53.266;10.410;2023-06-04T08:16:48;102007.97;;;16.68;41.84
10510;BME280;5303;53.266;10.410;2023-06-04T08:19:13;102007.06;;;16.71;40.32
10510;BME280;5303;53.266;10.410;2023-06-04T08:21:38;101994.63;;;16.67;41.07
10510;BME280;5303;53.266;10.410;2023-06-04T08:24:05;102006.19;;;16.64;42.98
10510;BME280;5303;53.266;10.410;2023-06-04T08:26:31;102007.06;;;16.71;41.26
10510;BME280;5303;53.266;10.410;2023-06-04T08:28:57;102009.69;;;16.76;41.12
10510;BME280;5303;53.266;10.410;2023-06-04T08:31:22;102009.66;;;16.79;41.10
10510;BME280;5303;53.266;10.410;2023-06-04T08:33:48;102004.22;;;16.88;39.98
10510;BME280;5303;53.266;10.410;2023-06-04T08:36:14;102005.88;;;16.99;34.39
10510;BME280;5303;53.266;10.410;2023-06-04T08:38:40;102005.94;;;16.96;38.82
10510;BME280;5303;53.266;10.410;2023-06-04T08:41:16;102014.59;;;17.15;37.24
10510;BME280;5303;53.266;10.410;2023-06-04T08:43:43;102002.13;;;17.16;38.02
10510;BME280;5303;53.266;10.410;2023-06-04T08:46:12;102009.28;;;17.12;38.43
10510;BME280;5303;53.266;10.410;2023-06-04T08:48:38;102008.41;;;17.12;37.84
10510;BME280;5303;53.266;10.410;2023-06-04T08:51:05;102010.84;;;17.32;37.33
10510;BME280;5303;53.266;10.410;2023-06-04T08:53:34;102014.38;;;17.34;36.90
10510;BME280;5303;53.266;10.410;2023-06-04T08:55:59;102018.81;;;17.35;36.28
10510;BME280;5303;53.266;10.410;2023-06-04T08:58:25;102016.91;;;17.44;35.55
10510;BME280;5303;53.266;10.410;2023-06-04T09:00:51;102013.25;;;17.53;35.81
10510;BME280;5303;53.266;10.410;2023-06-04T09:03:16;102019.44;;;17.58;35.92
10510;BME280;5303;53.266;10.410;2023-06-04T09:05:44;102016.81;;;17.53;36.61
10510;BME280;5303;53.266;10.410;2023-06-04T09:08:14;102018.47;;;17.62;36.90
10510;BME280;5303;53.266;10.410;2023-06-04T09:10:40;102022.97;;;17.57;36.92
10510;BME280;5303;53.266;10.410;2023-06-04T09:13:07;102021.38;;;17.44;37.01
10510;BME280;5303;53.266;10.410;2023-06-04T09:15:33;102021.41;;;17.42;37.62
10510;BME280;5303;53.266;10.410;2023-06-04T09:17:58;102020.56;;;17.39;38.19
10510;BME280;5303;53.266;10.410;2023-06-04T09:20:24;102019.56;;;17.47;39.14
10510;BME280;5303;53.266;10.410;2023-06-04T09:22:49;102021.28;;;17.51;38.05
10510;BME280;5303;53.266;10.410;2023-06-04T09:25:25;102019.94;;;17.88;36.79
10510;BME280;5303;53.266;10.410;2023-06-04T09:27:51;102027.75;;;18.03;37.54
10510;BME280;5303;53.266;10.410;2023-06-04T09:30:17;102018.50;;;18.25;36.23
10510;BME280;5303;53.266;10.410;2023-06-04T09:32:43;102009.56;;;18.26;36.15
10510;BME280;5303;53.266;10.410;2023-06-04T09:35:13;102023.75;;;18.31;36.93
10510;BME280;5303;53.266;10.410;2023-06-04T09:37:43;102012.72;;;18.53;36.27
10510;BME280;5303;53.266;10.410;2023-06-04T09:40:09;102018.69;;;18.68;35.28
10510;BME280;5303;53.266;10.410;2023-06-04T09:42:48;102009.06;;;18.57;33.66
10510;BME280;5303;53.266;10.410;2023-06-04T09:45:32;102024.47;;;18.42;34.08
10510;BME280;5303;53.266;10.410;2023-06-04T09:47:59;102005.59;;;18.52;34.63
10510;BME280;5303;53.266;10.410;2023-06-04T09:50:26;102007.97;;;18.72;34.07
10510;BME280;5303;53.266;10.410;2023-06-04T09:52:52;102007.81;;;18.79;33.99
10510;BME280;5303;53.266;10.410;2023-06-04T09:55:18;102011.19;;;18.89;34.82
10510;BME280;5303;53.266;10.410;2023-06-04T09:57:48;102011.69;;;18.61;34.50
10510;BME280;5303;53.266;10.410;2023-06-04T10:00:21;102013.84;;;18.39;35.01
10510;BME280;5303;53.266;10.410;2023-06-04T10:02:48;102007.59;;;18.37;35.45
10510;BME280;5303;53.266;10.410;2023-06-04T10:05:15;102013.06;;;18.31;35.26
10510;BME280;5303;53.266;10.410;2023-06-04T10:07:45;102004.22;;;18.29;36.56
10510;BME280;5303;53.266;10.410;2023-06-04T10:10:15;102008.63;;;18.29;36.30
10510;BME280;5303;53.266;10.410;2023-06-04T10:12:42;102009.13;;;18.54;35.48
10510;BME280;5303;53.266;10.410;2023-06-04T10:15:13;102007.22;;;18.62;35.68
10510;BME280;5303;53.266;10.410;2023-06-04T10:17:39;102000.53;;;18.87;34.82
10510;BME280;5303;53.266;10.410;2023-06-04T10:20:07;102002.38;;;18.85;34.74
10510;BME280;5303;53.266;10.410;2023-06-04T10:22:34;101993.88;;;18.60;35.50
10510;BME280;5303;53.266;10.410;2023-06-04T10:25:00;101999.72;;;18.84;35.16
10510;BME280;5303;53.266;10.410;2023-06-04T10:27:27;101996.72;;;19.02;34.32
10510;BME280;5303;53.266;10.410;2023-06-04T10:29:53;101999.50;;;18.96;34.39
10510;BME280;5303;53.266;10.410;2023-06-04T10:32:19;102000.22;;;19.04;33.97
10510;BME280;5303;53.266;10.410;2023-06-04T10:34:46;102004.47;;;19.16;34.06
10510;BME280;5303;53.266;10.410;2023-06-04T10:37:21;102000.09;;;19.12;33.23
10510;BME280;5303;53.266;10.410;2023-06-04T10:39:51;102006.56;;;18.98;34.38
10510;BME280;5303;53.266;10.410;2023-06-04T10:42:18;102003.84;;;19.00;33.82
10510;BME280;5303;53.266;10.410;2023-06-04T10:44:54;102010.38;;;18.85;34.24
10510;BME280;5303;53.266;10.410;2023-06-04T10:47:26;101999.03;;;19.19;34.22
10510;BME280;5303;53.266;10.410;2023-06-04T10:49:54;101995.63;;;19.12;34.65
10510;BME280;5303;53.266;10.410;2023-06-04T10:52:20;101999.78;;;19.27;34.06
10510;BME280;5303;53.266;10.410;2023-06-04T10:54:47;102008.50;;;19.37;34.36
10510;BME280;5303;53.266;10.410;2023-06-04T10:57:19;102011.56;;;19.17;34.26
10510;BME280;5303;53.266;10.410;2023-06-04T10:59:58;102008.34;;;19.44;33.56
10510;BME280;5303;53.266;10.410;2023-06-04T11:02:24;102002.91;;;19.47;33.48
10510;BME280;5303;53.266;10.410;2023-06-04T11:05:03;102002.06;;;19.45;33.37
10510;BME280;5303;53.266;10.410;2023-06-04T11:07:46;101998.84;;;19.28;34.16
10510;BME280;5303;53.266;10.410;2023-06-04T11:10:12;101993.31;;;19.37;34.59
10510;BME280;5303;53.266;10.410;2023-06-04T11:12:46;101995.66;;;19.54;33.57
10510;BME280;5303;53.266;10.410;2023-06-04T11:15:14;101991.28;;;19.48;33.06
10510;BME280;5303;53.266;10.410;2023-06-04T11:17:52;101993.22;;;19.43;33.38
10510;BME280;5303;53.266;10.410;2023-06-04T11:20:19;101993.53;;;19.70;31.84
10510;BME280;5303;53.266;10.410;2023-06-04T11:22:55;101993.63;;;19.67;32.06
10510;BME280;5303;53.266;10.410;2023-06-04T11:25:22;101989.94;;;19.72;31.73
10510;BME280;5303;53.266;10.410;2023-06-04T11:27:49;101988.56;;;19.51;32.56
10510;BME280;5303;53.266;10.410;2023-06-04T11:30:15;101993.31;;;19.80;31.76
10510;BME280;5303;53.266;10.410;2023-06-04T11:32:41;101983.38;;;19.85;32.38
10510;BME280;5303;53.266;10.410;2023-06-04T11:35:06;101990.28;;;19.96;31.08
10510;BME280;5303;53.266;10.410;2023-06-04T11:37:32;101973.19;;;20.01;31.34
10510;BME280;5303;53.266;10.410;2023-06-04T11:39:58;101975.34;;;19.85;31.85
10510;BME280;5303;53.266;10.410;2023-06-04T11:42:28;101973.44;;;19.91;31.67
10510;BME280;5303;53.266;10.410;2023-06-04T11:44:56;101968.19;;;19.86;32.09
10510;BME280;5303;53.266;10.410;2023-06-04T11:47:21;101986.78;;;19.92;31.09
10510;BME280;5303;53.266;10.410;2023-06-04T11:49:46;101981.38;;;19.95;31.45
10510;BME280;5303;53.266;10.410;2023-06-04T11:52:13;101979.66;;;19.91;31.30
10510;BME280;5303;53.266;10.410;2023-06-04T11:54:39;101981.41;;;19.92;31.00
10510;BME280;5303;53.266;10.410;2023-06-04T11:57:05;101978.91;;;19.86;33.78
10510;BME280;5303;53.266;10.410;2023-06-04T11:59:31;101981.53;;;19.88;31.49
10510;BME280;5303;53.266;10.410;2023-06-04T12:01:56;101983.25;;;19.90;32.33
10510;BME280;5303;53.266;10.410;2023-06-04T12:04:22;101975.59;;;20.12;31.79
10510;BME280;5303;53.266;10.410;2023-06-04T12:06:55;101970.53;;;20.37;31.35
10510;BME280;5303;53.266;10.410;2023-06-04T12:09:28;101970.91;;;20.22;31.27
10510;BME280;5303;53.266;10.410;2023-06-04T12:12:00;101970.50;;;20.01;31.29
10510;BME280;5303;53.266;10.410;2023-06-04T12:14:27;101975.31;;;19.87;32.48
10510;BME280;5303;53.266;10.410;2023-06-04T12:16:57;101971.63;;;19.93;32.07
10510;BME280;5303;53.266;10.410;2023-06-04T12:19:22;101971.06;;;20.16;31.71
10510;BME280;5303;53.266;10.410;2023-06-04T12:21:59;101964.47;;;20.29;32.22
10510;BME280;5303;53.266;10.410;2023-06-04T12:24:25;101965.53;;;20.22;31.98
10510;BME280;5303;53.266;10.410;2023-06-04T12:27:04;101961.84;;;20.27;31.95
10510;BME280;5303;53.266;10.410;2023-06-04T12:29:31;101953.31;;;20.47;31.42
10510;BME280;5303;53.266;10.410;2023-06-04T12:32:08;101957.84;;;20.45;32.45
10510;BME280;5303;53.266;10.410;2023-06-04T12:34:34;101958.28;;;20.62;30.79
10510;BME280;5303;53.266;10.410;2023-06-04T12:37:01;101952.50;;;20.45;31.01
10510;BME280;5303;53.266;10.410;2023-06-04T12:39:28;101951.00;;;20.67;31.58
10510;BME280;5303;53.266;10.410;2023-06-04T12:41:53;101942.41;;;20.53;31.80
10510;BME280;5303;53.266;10.410;2023-06-04T12:44:18;101951.09;;;20.64;30.82
10510;BME280;5303;53.266;10.410;2023-06-04T12:46:44;101947.97;;;20.47;31.31
10510;BME280;5303;53.266;10.410;2023-06-04T12:49:09;101944.38;;;20.48;31.57
10510;BME280;5303;53.266;10.410;2023-06-04T12:51:35;101943.59;;;20.43;32.54
10510;BME280;5303;53.266;10.410;2023-06-04T12:54:01;101945.94;;;20.57;32.15
10510;BME280;5303;53.266;10.410;2023-06-04T12:56:26;101953.59;;;20.70;32.64